createdAt,value
2018-10-03T00:00:22.477Z,10.85
2018-10-03T00:02:51.217Z,10.78
2018-10-03T00:05:19.997Z,10.83
2018-10-03T00:07:48.858Z,10.94
2018-10-03T00:10:17.562Z,10.88
2018-10-03T00:12:46.400Z,10.84
2018-10-03T00:15:15.103Z,10.82
2018-10-03T00:17:44.344Z,10.81
2018-10-03T00:20:13.074Z,10.79
2018-10-03T00:22:41.898Z,10.74
2018-10-03T00:25:10.665Z,10.81
2018-10-03T00:27:39.317Z,10.83
2018-10-03T00:30:07.979Z,10.82
2018-10-03T00:32:36.794Z,10.88
2018-10-03T00:35:05.877Z,10.92
2018-10-03T00:37:34.578Z,10.93
2018-10-03T00:40:03.386Z,10.85
2018-10-03T00:42:32.145Z,10.86
2018-10-03T00:45:01.042Z,10.88
2018-10-03T00:47:29.791Z,10.84
2018-10-03T00:49:59.169Z,10.85
2018-10-03T00:52:27.926Z,10.82
2018-10-03T00:54:56.574Z,10.97
2018-10-03T00:57:25.258Z,10.97
2018-10-03T00:59:53.956Z,10.99
2018-10-03T01:02:22.698Z,11.09
2018-10-03T01:04:51.374Z,10.99
2018-10-03T01:07:20.041Z,10.97
2018-10-03T01:09:48.706Z,10.92
2018-10-03T01:12:17.411Z,10.97
2018-10-03T01:14:46.305Z,10.98
2018-10-03T01:17:14.978Z,10.96
2018-10-03T01:19:43.886Z,10.96
2018-10-03T01:22:12.593Z,10.91
2018-10-03T01:24:41.474Z,11.03
2018-10-03T01:27:10.237Z,10.99
2018-10-03T01:29:39.109Z,10.98
2018-10-03T01:32:07.810Z,10.93
2018-10-03T01:34:36.470Z,10.99
2018-10-03T01:37:05.237Z,10.91
2018-10-03T01:39:33.975Z,10.86
2018-10-03T01:42:02.715Z,10.81
2018-10-03T01:44:31.513Z,10.95
2018-10-03T01:47:00.189Z,10.97
2018-10-03T01:49:29.373Z,10.94
2018-10-03T01:51:58.121Z,11.04
2018-10-03T01:54:26.811Z,11.03
2018-10-03T01:56:55.517Z,11.03
2018-10-03T01:59:24.189Z,11.06
2018-10-03T02:01:53.031Z,11.07
2018-10-03T02:04:21.784Z,11.08
2018-10-03T02:06:50.685Z,11.09
2018-10-03T02:09:19.459Z,11.07
2018-10-03T02:11:48.143Z,11.09
2018-10-03T02:14:17.486Z,11.15
2018-10-03T02:16:46.361Z,11.05
2018-10-03T02:19:15.115Z,11.08
2018-10-03T02:21:43.886Z,11.12
2018-10-03T02:24:12.595Z,11.11
2018-10-03T02:26:41.633Z,11.12
2018-10-03T02:29:10.433Z,11.08
2018-10-03T02:31:39.162Z,11.13
2018-10-03T02:34:08.304Z,11.17
2018-10-03T02:36:37.047Z,11.13
2018-10-03T02:39:07.934Z,11.16
2018-10-03T02:41:36.705Z,11.16
2018-10-03T02:44:08.331Z,11.15
2018-10-03T02:46:37.018Z,11.12
2018-10-03T02:49:05.675Z,11.11
2018-10-03T02:51:34.341Z,11.13
2018-10-03T02:54:03.038Z,11.17
2018-10-03T02:56:31.877Z,11.08
2018-10-03T02:59:00.725Z,11.25
2018-10-03T03:01:29.462Z,11.17
2018-10-03T03:03:58.129Z,11.17
2018-10-03T03:06:26.964Z,11.20
2018-10-03T03:08:55.755Z,11.29
2018-10-03T03:11:24.568Z,11.23
2018-10-03T03:13:53.311Z,11.18
2018-10-03T03:16:22.046Z,11.18
2018-10-03T03:18:50.855Z,11.21
2018-10-03T03:21:19.556Z,11.24
2018-10-03T03:23:48.241Z,11.23
2018-10-03T03:26:16.950Z,11.32
2018-10-03T03:28:45.725Z,11.34
2018-10-03T03:31:14.411Z,11.28
2018-10-03T03:33:43.090Z,11.23
2018-10-03T03:36:11.814Z,11.19
2018-10-03T03:38:40.601Z,11.29
2018-10-03T03:41:09.369Z,11.33
2018-10-03T03:43:38.060Z,11.32
2018-10-03T03:46:06.925Z,11.32
2018-10-03T03:48:35.659Z,11.26
2018-10-03T03:51:04.441Z,11.37
2018-10-03T03:53:33.085Z,11.31
2018-10-03T03:56:01.913Z,11.35
2018-10-03T03:58:30.681Z,11.34
2018-10-03T04:00:59.506Z,11.33
2018-10-03T04:03:28.274Z,11.30
2018-10-03T04:05:56.930Z,11.31
2018-10-03T04:08:25.777Z,11.28
2018-10-03T04:10:54.433Z,11.26
2018-10-03T04:13:23.093Z,11.29
2018-10-03T04:15:51.885Z,11.29
2018-10-03T04:18:20.624Z,11.32
2018-10-03T04:20:49.534Z,11.28
2018-10-03T04:23:18.276Z,11.37
2018-10-03T04:25:46.932Z,11.27
2018-10-03T04:28:15.693Z,11.32
2018-10-03T04:30:44.353Z,11.32
2018-10-03T04:33:12.981Z,11.31
2018-10-03T04:35:41.988Z,11.30
2018-10-03T04:38:10.729Z,11.40
2018-10-03T04:40:39.399Z,11.36
2018-10-03T04:43:08.193Z,11.39
2018-10-03T04:45:36.859Z,11.28
2018-10-03T04:48:05.671Z,11.31
2018-10-03T04:50:34.333Z,11.27
2018-10-03T04:53:03.010Z,11.32
2018-10-03T04:55:31.698Z,11.27
2018-10-03T04:58:00.446Z,11.27
2018-10-03T05:00:29.248Z,11.36
2018-10-03T05:02:57.911Z,11.38
2018-10-03T05:05:26.781Z,11.34
2018-10-03T05:07:55.439Z,11.39
2018-10-03T05:10:24.218Z,11.34
2018-10-03T05:12:52.889Z,11.27
2018-10-03T05:15:21.717Z,11.33
2018-10-03T05:17:50.625Z,11.28
2018-10-03T05:20:19.377Z,11.34
2018-10-03T05:22:48.070Z,11.36
2018-10-03T05:25:16.785Z,11.30
2018-10-03T05:27:45.644Z,11.32
2018-10-03T05:30:14.446Z,11.28
2018-10-03T05:32:43.307Z,11.29
2018-10-03T05:35:12.022Z,11.26
2018-10-03T05:37:40.704Z,11.22
2018-10-03T05:40:09.434Z,11.23
2018-10-03T05:42:38.248Z,11.37
2018-10-03T05:45:06.938Z,11.36
2018-10-03T05:47:35.638Z,11.36
2018-10-03T05:50:04.377Z,11.36
2018-10-03T05:52:33.112Z,11.36
2018-10-03T05:55:01.943Z,11.39
2018-10-03T05:57:30.775Z,11.44
2018-10-03T05:59:59.483Z,11.40
2018-10-03T06:02:28.225Z,11.39
2018-10-03T06:04:56.975Z,11.46
2018-10-03T06:07:25.790Z,11.46
2018-10-03T06:09:54.591Z,11.54
2018-10-03T06:12:23.266Z,11.44
2018-10-03T06:14:52.286Z,11.59
2018-10-03T06:17:21.114Z,11.71
2018-10-03T06:19:50.058Z,11.79
2018-10-03T06:22:18.815Z,11.78
2018-10-03T06:24:47.613Z,11.83
2018-10-03T06:27:16.425Z,11.82
2018-10-03T06:29:45.551Z,11.90
2018-10-03T06:32:14.717Z,11.95
2018-10-03T06:34:43.590Z,11.92
2018-10-03T06:37:12.667Z,11.90
2018-10-03T06:39:41.494Z,11.87
2018-10-03T06:42:10.242Z,11.90
2018-10-03T06:44:38.978Z,11.90
2018-10-03T06:47:07.747Z,11.81
2018-10-03T06:49:36.711Z,11.85
2018-10-03T06:52:05.461Z,11.67
2018-10-03T06:54:34.241Z,11.69
2018-10-03T06:57:03.224Z,11.60
2018-10-03T06:59:32.059Z,11.65
2018-10-03T07:02:00.758Z,11.56
2018-10-03T07:04:29.522Z,11.57
2018-10-03T07:06:58.241Z,11.45
2018-10-03T07:09:26.989Z,11.55
2018-10-03T07:11:55.710Z,11.51
2018-10-03T07:14:24.504Z,11.56
2018-10-03T07:16:53.170Z,11.69
2018-10-03T07:19:21.998Z,11.57
2018-10-03T07:21:50.681Z,11.60
2018-10-03T07:24:19.985Z,11.45
2018-10-03T07:26:48.641Z,11.41
2018-10-03T07:29:17.393Z,11.43
2018-10-03T07:31:46.130Z,11.44
2018-10-03T07:34:14.829Z,11.54
2018-10-03T07:36:43.539Z,11.47
2018-10-03T07:39:12.381Z,11.46
2018-10-03T07:41:41.042Z,11.40
2018-10-03T07:44:09.891Z,11.39
2018-10-03T07:46:38.681Z,11.56
2018-10-03T07:49:07.506Z,11.72
2018-10-03T07:51:36.233Z,11.53
2018-10-03T07:54:05.038Z,11.59
2018-10-03T07:56:33.718Z,11.68
2018-10-03T07:59:02.484Z,11.72
2018-10-03T08:01:31.147Z,11.73
2018-10-03T08:03:59.894Z,11.74
2018-10-03T08:06:28.700Z,11.75
2018-10-03T08:08:57.357Z,11.89
2018-10-03T08:11:26.161Z,11.92
2018-10-03T08:13:54.937Z,12.11
2018-10-03T08:16:23.713Z,12.13
2018-10-03T08:18:52.377Z,12.25
2018-10-03T08:21:21.070Z,12.37
2018-10-03T08:23:49.780Z,12.40
2018-10-03T08:26:18.457Z,12.42
2018-10-03T08:28:47.128Z,12.59
2018-10-03T08:31:16.266Z,12.56
2018-10-03T08:33:44.941Z,12.57
2018-10-03T08:36:13.597Z,12.68
2018-10-03T08:38:42.324Z,12.73
2018-10-03T08:41:11.090Z,12.77
2018-10-03T08:43:39.781Z,13.00
2018-10-03T08:46:09.026Z,13.13
2018-10-03T08:48:38.079Z,13.15
2018-10-03T08:51:06.877Z,13.13
2018-10-03T08:53:35.574Z,13.18
2018-10-03T08:56:04.393Z,13.26
2018-10-03T08:58:33.137Z,13.41
2018-10-03T09:01:01.749Z,13.55
2018-10-03T09:03:30.467Z,13.62
2018-10-03T09:05:59.181Z,13.63
2018-10-03T09:08:27.909Z,13.68
2018-10-03T09:10:56.706Z,13.81
2018-10-03T09:13:25.402Z,13.78
2018-10-03T09:15:54.150Z,13.66
2018-10-03T09:18:22.797Z,13.55
2018-10-03T09:20:51.514Z,13.58
2018-10-03T09:23:20.309Z,13.72
2018-10-03T09:25:48.970Z,13.79
2018-10-03T09:28:17.688Z,13.91
2018-10-03T09:30:46.502Z,14.14
2018-10-03T09:33:15.149Z,14.19
2018-10-03T09:35:43.834Z,14.03
2018-10-03T09:38:12.608Z,14.03
2018-10-03T09:40:41.318Z,13.86
2018-10-03T09:43:10.350Z,13.92
2018-10-03T09:45:39.013Z,13.98
2018-10-03T09:48:07.782Z,14.12
2018-10-03T09:50:36.471Z,14.11
2018-10-03T09:53:05.157Z,14.27
2018-10-03T09:55:33.813Z,14.16
2018-10-03T09:58:02.568Z,14.28
2018-10-03T10:00:36.730Z,14.50
2018-10-03T10:03:05.571Z,14.40
2018-10-03T10:05:34.322Z,14.43
2018-10-03T10:08:02.962Z,14.23
2018-10-03T10:10:31.641Z,14.40
2018-10-03T10:13:00.344Z,14.67
2018-10-03T10:15:29.068Z,14.90
2018-10-03T10:17:57.783Z,15.32
2018-10-03T10:20:26.673Z,15.16
2018-10-03T10:22:55.326Z,15.21
2018-10-03T10:25:24.038Z,15.10
2018-10-03T10:27:52.797Z,15.00
2018-10-03T10:30:21.477Z,14.96
2018-10-03T10:32:50.307Z,14.96
2018-10-03T10:35:18.968Z,15.14
2018-10-03T10:37:47.725Z,15.18
2018-10-03T10:40:16.373Z,15.15
2018-10-03T10:42:45.058Z,14.90
2018-10-03T10:45:13.952Z,14.82
2018-10-03T10:47:42.934Z,14.82
2018-10-03T10:50:11.703Z,14.72
2018-10-03T10:52:40.422Z,14.76
2018-10-03T10:55:09.351Z,14.84
2018-10-03T10:57:38.146Z,14.73
2018-10-03T11:00:07.007Z,14.73
2018-10-03T11:02:35.894Z,14.56
2018-10-03T11:05:04.689Z,14.37
2018-10-03T11:07:33.362Z,14.23
2018-10-03T11:10:02.150Z,14.37
2018-10-03T11:12:30.796Z,14.42
2018-10-03T11:14:59.506Z,14.50
2018-10-03T11:17:28.523Z,14.56
2018-10-03T11:19:57.283Z,14.62
2018-10-03T11:22:26.187Z,14.58
2018-10-03T11:24:55.107Z,14.60
2018-10-03T11:27:23.747Z,14.60
2018-10-03T11:29:52.557Z,14.51
2018-10-03T11:32:21.358Z,14.60
2018-10-03T11:34:50.101Z,14.54
2018-10-03T11:37:18.757Z,14.53
2018-10-03T11:39:47.504Z,14.49
2018-10-03T11:42:16.179Z,14.29
2018-10-03T11:44:45.208Z,14.38
2018-10-03T11:47:13.975Z,14.37
2018-10-03T11:49:42.614Z,14.45
2018-10-03T11:52:11.282Z,14.52
2018-10-03T11:54:40.058Z,14.40
2018-10-03T11:57:08.901Z,14.33
2018-10-03T11:59:37.715Z,14.35
2018-10-03T12:02:06.403Z,14.34
2018-10-03T12:04:35.116Z,14.51
2018-10-03T12:07:03.949Z,14.42
2018-10-03T12:09:32.774Z,14.53
2018-10-03T12:12:01.570Z,15.00
2018-10-03T12:14:30.466Z,16.13
2018-10-03T12:16:59.219Z,17.24
2018-10-03T12:19:28.139Z,17.70
2018-10-03T12:21:56.934Z,17.20
2018-10-03T12:24:25.746Z,16.39
2018-10-03T12:26:54.501Z,15.99
2018-10-03T12:29:23.360Z,15.75
2018-10-03T12:31:52.151Z,15.67
2018-10-03T12:34:20.962Z,15.50
2018-10-03T12:36:49.733Z,15.49
2018-10-03T12:39:18.570Z,15.53
2018-10-03T12:41:47.317Z,15.47
2018-10-03T12:44:16.149Z,15.49
2018-10-03T12:46:44.894Z,15.77
2018-10-03T12:49:13.557Z,15.81
2018-10-03T12:51:42.605Z,15.78
2018-10-03T12:54:11.285Z,15.64
2018-10-03T12:56:40.373Z,15.65
2018-10-03T12:59:09.077Z,15.88
2018-10-03T13:01:37.946Z,16.38
2018-10-03T13:04:06.785Z,15.99
2018-10-03T13:06:35.492Z,15.98
2018-10-03T13:09:05.799Z,16.10
2018-10-03T13:11:34.477Z,16.58
2018-10-03T13:14:03.174Z,17.25
2018-10-03T13:16:32.032Z,16.81
2018-10-03T13:19:01.095Z,16.83
2018-10-03T13:21:29.854Z,16.58
2018-10-03T13:23:58.806Z,16.94
2018-10-03T13:26:27.531Z,17.50
2018-10-03T13:28:56.258Z,18.17
2018-10-03T13:31:24.978Z,17.62
2018-10-03T13:33:53.718Z,18.01
2018-10-03T13:36:22.387Z,18.68
2018-10-03T13:38:51.113Z,19.60
2018-10-03T13:41:20.003Z,19.03
2018-10-03T13:43:48.986Z,18.71
2018-10-03T13:46:17.894Z,18.19
2018-10-03T13:48:46.826Z,18.76
2018-10-03T13:51:15.577Z,18.95
2018-10-03T13:53:44.248Z,17.92
2018-10-03T13:56:13.070Z,17.20
2018-10-03T13:58:41.826Z,18.22
2018-10-03T14:01:10.517Z,17.22
2018-10-03T14:03:39.539Z,16.98
2018-10-03T14:06:08.285Z,16.88
2018-10-03T14:08:37.169Z,17.13
2018-10-03T14:11:06.047Z,17.01
2018-10-03T14:13:34.649Z,16.44
2018-10-03T14:16:03.370Z,16.22
2018-10-03T14:18:32.095Z,16.13
2018-10-03T14:21:00.826Z,16.04
2018-10-03T14:23:29.614Z,16.04
2018-10-03T14:25:58.386Z,16.10
2018-10-03T14:28:27.089Z,15.99
2018-10-03T14:30:55.768Z,16.05
2018-10-03T14:33:24.591Z,15.95
2018-10-03T14:35:53.207Z,15.84
2018-10-03T14:38:21.954Z,16.01
2018-10-03T14:40:50.665Z,15.82
2018-10-03T14:43:19.441Z,15.96
2018-10-03T14:45:48.473Z,15.97
2018-10-03T14:48:17.535Z,15.83
2018-10-03T14:50:46.407Z,15.69
2018-10-03T14:53:15.076Z,15.61
2018-10-03T14:55:43.840Z,15.62
2018-10-03T14:58:12.667Z,15.61
2018-10-03T15:00:41.366Z,15.59
2018-10-03T15:03:10.339Z,15.63
2018-10-03T15:05:39.428Z,15.61
2018-10-03T15:08:08.679Z,15.59
2018-10-03T15:10:37.430Z,15.45
2018-10-03T15:13:06.336Z,15.42
2018-10-03T15:15:35.024Z,15.35
2018-10-03T15:18:03.763Z,15.26
2018-10-03T15:20:32.447Z,15.23
2018-10-03T15:23:01.231Z,15.26
2018-10-03T15:25:29.917Z,15.24
2018-10-03T15:27:58.591Z,15.26
2018-10-03T15:30:27.341Z,15.14
2018-10-03T15:32:56.121Z,15.07
2018-10-03T15:35:24.886Z,15.10
2018-10-03T15:37:53.616Z,15.06
2018-10-03T15:40:22.425Z,15.07
2018-10-03T15:42:51.195Z,15.01
2018-10-03T15:45:19.989Z,14.86
2018-10-03T15:47:48.661Z,14.89
2018-10-03T15:50:17.391Z,14.80
2018-10-03T15:52:46.193Z,14.83
2018-10-03T15:55:14.922Z,14.73
2018-10-03T15:57:43.652Z,14.75
2018-10-03T16:00:12.329Z,14.69
2018-10-03T16:02:41.219Z,14.63
2018-10-03T16:05:09.997Z,14.60
2018-10-03T16:07:38.762Z,14.63
2018-10-03T16:10:07.777Z,14.60
2018-10-03T16:12:36.434Z,14.55
2018-10-03T16:15:05.227Z,14.50
2018-10-03T16:17:33.934Z,14.46
2018-10-03T16:20:02.670Z,14.45
2018-10-03T16:22:31.440Z,14.41
2018-10-03T16:25:00.169Z,14.37
2018-10-03T16:27:28.870Z,14.33
2018-10-03T16:29:57.586Z,14.26
2018-10-03T16:32:26.377Z,14.25
2018-10-03T16:34:55.045Z,14.21
2018-10-03T16:37:23.718Z,14.15
2018-10-03T16:39:52.438Z,14.12
2018-10-03T16:42:21.252Z,14.07
2018-10-03T16:44:49.977Z,14.02
2018-10-03T16:47:18.657Z,13.89
2018-10-03T16:49:47.438Z,13.90
2018-10-03T16:52:16.129Z,13.78
2018-10-03T16:54:44.853Z,13.75
2018-10-03T16:57:13.629Z,13.72
2018-10-03T16:59:42.399Z,13.72
2018-10-03T17:02:11.541Z,13.72
2018-10-03T17:04:40.315Z,13.63
2018-10-03T17:07:09.110Z,13.52
2018-10-03T17:09:37.861Z,13.50
2018-10-03T17:12:06.526Z,13.53
2018-10-03T17:14:39.365Z,13.43
2018-10-03T17:17:08.857Z,13.37
2018-10-03T17:19:37.820Z,13.39
2018-10-03T17:22:06.593Z,13.22
2018-10-03T17:24:36.555Z,13.20
2018-10-03T17:27:05.474Z,13.19
2018-10-03T17:29:34.113Z,13.14
2018-10-03T17:32:02.861Z,13.13
2018-10-03T17:34:31.931Z,13.05
2018-10-03T17:37:00.683Z,13.06
2018-10-03T17:39:29.717Z,13.05
2018-10-03T17:41:58.812Z,13.01
2018-10-03T17:44:27.597Z,12.96
2018-10-03T17:46:57.541Z,12.87
2018-10-03T17:49:26.481Z,12.86
2018-10-03T17:51:55.236Z,12.86
2018-10-03T17:54:23.946Z,12.81
2018-10-03T17:56:52.626Z,12.87
2018-10-03T17:59:21.293Z,12.76
2018-10-03T18:02:02.301Z,12.85
2018-10-03T18:04:30.994Z,12.82
2018-10-03T18:06:59.809Z,12.73
2018-10-03T18:09:28.571Z,12.77
2018-10-03T18:11:57.399Z,12.66
2018-10-03T18:14:26.137Z,12.60
2018-10-03T18:16:54.885Z,12.61
2018-10-03T18:19:23.617Z,12.59
2018-10-03T18:21:52.334Z,12.55
2018-10-03T18:24:21.009Z,12.46
2018-10-03T18:26:49.914Z,12.46
2018-10-03T18:29:18.597Z,12.38
2018-10-03T18:31:47.302Z,12.39
2018-10-03T18:34:16.194Z,12.45
2018-10-03T18:36:45.069Z,12.40
2018-10-03T18:39:14.208Z,12.34
2018-10-03T18:41:42.849Z,12.26
2018-10-03T18:44:11.502Z,12.16
2018-10-03T18:46:40.485Z,12.20
2018-10-03T18:49:09.117Z,12.23
2018-10-03T18:51:37.850Z,12.12
2018-10-03T18:54:06.641Z,12.05
2018-10-03T18:56:35.609Z,12.03
2018-10-03T18:59:04.441Z,12.10
2018-10-03T19:01:33.294Z,12.03
2018-10-03T19:04:02.014Z,12.09
2018-10-03T19:06:30.819Z,12.01
2018-10-03T19:08:59.638Z,11.88
2018-10-03T19:11:28.357Z,11.92
2018-10-03T19:13:57.198Z,11.86
2018-10-03T19:16:25.879Z,11.71
2018-10-03T19:18:54.658Z,11.74
2018-10-03T19:21:23.381Z,11.72
2018-10-03T19:23:52.230Z,11.61
2018-10-03T19:26:22.919Z,11.71
2018-10-03T19:28:51.562Z,11.60
2018-10-03T19:31:20.258Z,11.56
2018-10-03T19:33:49.374Z,11.44
2018-10-03T19:36:18.494Z,11.40
2018-10-03T19:38:47.385Z,11.49
2018-10-03T19:41:16.219Z,11.37
2018-10-03T19:43:44.986Z,11.37
2018-10-03T19:46:13.811Z,11.31
2018-10-03T19:48:42.559Z,11.27
2018-10-03T19:51:11.433Z,11.21
2018-10-03T19:53:40.186Z,11.21
2018-10-03T19:56:15.379Z,11.22
2018-10-03T19:58:44.131Z,11.23
2018-10-03T20:01:12.926Z,11.10
2018-10-03T20:03:41.691Z,11.12
2018-10-03T20:06:10.695Z,11.10
2018-10-03T20:08:39.495Z,11.09
2018-10-03T20:11:08.295Z,11.05
2018-10-03T20:13:37.265Z,11.03
2018-10-03T20:16:06.050Z,10.99
2018-10-03T20:18:34.835Z,10.93
2018-10-03T20:21:03.576Z,10.82
2018-10-03T20:23:32.534Z,10.82
2018-10-03T20:26:01.299Z,10.75
2018-10-03T20:28:30.042Z,10.69
2018-10-03T20:30:58.824Z,10.63
2018-10-03T20:33:27.479Z,10.60
2018-10-03T20:35:56.218Z,10.56
2018-10-03T20:38:25.027Z,10.61
2018-10-03T20:40:53.679Z,10.64
2018-10-03T20:43:22.393Z,10.64
2018-10-03T20:45:51.287Z,10.61
2018-10-03T20:48:20.236Z,10.55
2018-10-03T20:50:48.874Z,10.50
2018-10-03T20:53:17.501Z,10.49
2018-10-03T20:55:46.274Z,10.45
2018-10-03T20:58:15.042Z,10.45
2018-10-03T21:00:43.762Z,10.40
2018-10-03T21:03:12.512Z,10.38
2018-10-03T21:05:41.197Z,10.27
2018-10-03T21:08:09.999Z,10.24
2018-10-03T21:10:39.001Z,10.12
2018-10-03T21:13:07.969Z,10.09
2018-10-03T21:15:36.651Z,10.05
2018-10-03T21:18:05.330Z,10.04
2018-10-03T21:20:34.161Z,9.99
2018-10-03T21:23:02.823Z,9.96
2018-10-03T21:25:31.621Z,9.91
2018-10-03T21:28:00.405Z,9.93
2018-10-03T21:30:29.094Z,9.88
2018-10-03T21:32:57.801Z,9.82
2018-10-03T21:35:26.572Z,9.84
2018-10-03T21:37:55.586Z,9.79
2018-10-03T21:40:24.370Z,9.75
2018-10-03T21:42:53.090Z,9.70
2018-10-03T21:45:21.830Z,9.67
2018-10-03T21:47:50.524Z,9.66
2018-10-03T21:50:19.338Z,9.63
2018-10-03T21:52:48.086Z,9.55
2018-10-03T21:55:16.779Z,9.54
2018-10-03T21:57:45.460Z,9.48
2018-10-03T22:00:14.117Z,9.42
2018-10-03T22:02:42.790Z,9.39
2018-10-03T22:05:11.518Z,9.41
2018-10-03T22:07:40.823Z,9.38
2018-10-03T22:10:09.538Z,9.30
2018-10-03T22:12:38.401Z,9.25
2018-10-03T22:15:07.161Z,9.19
2018-10-03T22:17:40.625Z,9.10
2018-10-03T22:20:09.989Z,9.01
2018-10-03T22:22:38.734Z,8.97
2018-10-03T22:25:07.604Z,8.93
2018-10-03T22:27:36.412Z,8.91
2018-10-03T22:30:05.677Z,8.78
2018-10-03T22:32:34.437Z,8.74
2018-10-03T22:35:03.209Z,8.74
2018-10-03T22:37:31.881Z,8.73
2018-10-03T22:40:00.603Z,8.70
2018-10-03T22:42:29.538Z,8.61
2018-10-03T22:44:58.235Z,8.49
2018-10-03T22:47:26.873Z,8.50
2018-10-03T22:49:55.898Z,8.43
2018-10-03T22:52:24.862Z,8.42
2018-10-03T22:54:53.890Z,8.36
2018-10-03T22:57:22.561Z,8.26
2018-10-03T22:59:51.318Z,8.20
2018-10-03T23:02:20.027Z,8.14
2018-10-03T23:04:48.679Z,8.09
2018-10-03T23:07:17.433Z,8.08
2018-10-03T23:09:46.729Z,8.06
2018-10-03T23:12:15.518Z,8.12
2018-10-03T23:14:44.185Z,8.08
2018-10-03T23:17:12.945Z,8.07
2018-10-03T23:19:41.785Z,8.04
2018-10-03T23:22:10.536Z,7.99
2018-10-03T23:24:39.207Z,7.96
2018-10-03T23:27:08.017Z,7.97
2018-10-03T23:29:36.666Z,7.93
2018-10-03T23:32:05.371Z,7.88
2018-10-03T23:34:34.108Z,7.88
2018-10-03T23:37:03.000Z,7.88
2018-10-03T23:39:31.898Z,7.84
2018-10-03T23:42:00.644Z,7.78
2018-10-03T23:44:29.394Z,7.77
2018-10-03T23:46:58.121Z,7.72
2018-10-03T23:49:26.894Z,7.72
2018-10-03T23:51:55.606Z,7.71
2018-10-03T23:54:24.258Z,7.69
2018-10-03T23:56:52.977Z,7.56
2018-10-03T23:59:21.678Z,7.38
